Time;durP1;ratioP1;P1;durP2;ratioP2;P2;SDS_P1;SDS_P2;PMS_P1;PMS_P2;Temp;Humidity;BMP_temperature;BMP_pressure;BME280_temperature;BME280_humidity;BME280_pressure;Samples;Min_cycle;Max_cycle;Signal;HPM_P1;HPM_P2
2021/09/06 00:01:06;;;;;;;21.73;11.63;;;;;;;;;;5084857;28;20466;-65
2021/09/06 00:03:32;;;;;;;21.98;11.98;;;;;;;;;;5085095;28;20100;-70
2021/09/06 00:05:58;;;;;;;19.50;10.95;;;;;;;;;;5085028;28;20029;-66
2021/09/06 00:08:25;;;;;;;23.17;12.80;;;;;;;;;;5084758;28;20055;-65
2021/09/06 00:11:03;;;;;;;18.15;12.13;;;;;;;;;;5084741;28;20055;-67
2021/09/06 00:13:29;;;;;;;21.25;11.85;;;;;;;;;;5085224;28;20029;-65
2021/09/06 00:15:55;;;;;;;21.75;10.90;;;;;;;;;;5085081;28;20036;-65
2021/09/06 00:18:21;;;;;;;19.73;11.85;;;;;;;;;;5084931;28;20041;-69
2021/09/06 00:20:47;;;;;;;19.35;11.95;;;;;;;;;;5084994;28;20052;-65
2021/09/06 00:23:13;;;;;;;19.67;11.90;;;;;;;;;;5085170;28;20017;-65
2021/09/06 00:25:39;;;;;;;18.70;11.57;;;;;;;;;;5084864;28;20078;-67
2021/09/06 00:28:06;;;;;;;25.30;13.02;;;;;;;;;;5084629;28;20035;-66
2021/09/06 00:30:32;;;;;;;23.85;13.32;;;;;;;;;;5068593;28;20086;-65
2021/09/06 00:32:58;;;;;;;28.20;13.10;;;;;;;;;;5088508;28;20051;-65
2021/09/06 00:35:24;;;;;;;25.20;14.48;;;;;;;;;;5088205;28;20107;-65
2021/09/06 00:37:50;;;;;;;22.00;13.02;;;;;;;;;;5088423;28;20029;-64
2021/09/06 00:40:16;;;;;;;20.52;12.05;;;;;;;;;;5088235;28;20031;-66
2021/09/06 00:42:43;;;;;;;23.25;13.38;;;;;;;;;;5088161;28;20025;-64
2021/09/06 00:45:09;;;;;;;24.27;13.77;;;;;;;;;;5088411;28;20025;-64
2021/09/06 00:47:39;;;;;;;24.00;12.85;;;;;;;;;;5088098;28;20028;-65
2021/09/06 00:50:06;;;;;;;22.55;13.10;;;;;;;;;;5088554;28;20028;-65
2021/09/06 00:52:33;;;;;;;25.95;14.90;;;;;;;;;;5087979;28;20035;-67
2021/09/06 00:54:59;;;;;;;26.40;13.00;;;;;;;;;;5088232;28;20075;-65
2021/09/06 00:57:26;;;;;;;27.05;14.20;;;;;;;;;;5087894;28;20448;-66
2021/09/06 00:59:52;;;;;;;26.42;14.13;;;;;;;;;;5088682;28;20032;-65
2021/09/06 01:02:18;;;;;;;21.15;14.07;;;;;;;;;;5070259;28;20021;-65
2021/09/06 01:04:44;;;;;;;27.83;14.15;;;;;;;;;;5088166;28;20039;-65
2021/09/06 01:07:10;;;;;;;24.13;14.13;;;;;;;;;;5087673;28;20051;-67
2021/09/06 01:09:36;;;;;;;27.48;13.88;;;;;;;;;;5070104;28;20063;-70
2021/09/06 01:12:02;;;;;;;28.65;13.50;;;;;;;;;;5087812;28;20025;-69
2021/09/06 01:14:28;;;;;;;28.70;14.82;;;;;;;;;;5087980;28;20028;-65
2021/09/06 01:16:55;;;;;;;26.50;14.98;;;;;;;;;;5088015;28;20386;-64
2021/09/06 01:19:21;;;;;;;27.75;15.88;;;;;;;;;;5088005;28;20054;-64
2021/09/06 01:21:47;;;;;;;23.83;13.93;;;;;;;;;;5087703;28;20025;-64
2021/09/06 01:24:15;;;;;;;28.67;15.32;;;;;;;;;;5087980;28;20054;-65
2021/09/06 01:26:42;;;;;;;25.90;16.38;;;;;;;;;;5087688;28;20157;-68
2021/09/06 01:29:08;;;;;;;25.73;15.60;;;;;;;;;;5087856;28;20025;-65
2021/09/06 01:31:34;;;;;;;25.55;14.60;;;;;;;;;;5087950;28;20434;-64
2021/09/06 01:34:00;;;;;;;26.40;13.85;;;;;;;;;;5088047;28;20037;-67
2021/09/06 01:36:26;;;;;;;25.67;14.48;;;;;;;;;;5088014;28;20088;-65
2021/09/06 01:38:52;;;;;;;26.45;14.70;;;;;;;;;;5087995;28;20016;-65
2021/09/06 01:41:18;;;;;;;26.65;14.32;;;;;;;;;;5087595;28;20017;-65
2021/09/06 01:43:44;;;;;;;26.98;14.95;;;;;;;;;;5087719;28;20021;-64
2021/09/06 01:46:11;;;;;;;23.73;14.30;;;;;;;;;;5088009;28;20025;-65
2021/09/06 01:48:37;;;;;;;28.17;14.05;;;;;;;;;;5087975;28;20052;-65
2021/09/06 01:51:03;;;;;;;27.77;15.60;;;;;;;;;;5087801;28;20048;-65
2021/09/06 01:53:29;;;;;;;27.65;14.45;;;;;;;;;;5069617;28;20516;-65
2021/09/06 01:55:55;;;;;;;24.92;14.25;;;;;;;;;;5087944;28;20028;-65
2021/09/06 01:58:21;;;;;;;25.42;14.02;;;;;;;;;;5087295;28;20051;-68
2021/09/06 02:00:48;;;;;;;24.67;13.93;;;;;;;;;;5086358;28;20509;-69
2021/09/06 02:03:14;;;;;;;26.98;14.93;;;;;;;;;;5086046;28;20059;-64
2021/09/06 02:05:40;;;;;;;23.17;13.73;;;;;;;;;;5086328;28;20087;-69
2021/09/06 02:08:06;;;;;;;27.25;14.30;;;;;;;;;;5086075;28;20078;-64
2021/09/06 02:10:32;;;;;;;26.35;14.85;;;;;;;;;;5084438;28;20032;-64
2021/09/06 02:12:58;;;;;;;23.95;14.75;;;;;;;;;;5086020;28;20030;-66
2021/09/06 02:15:24;;;;;;;28.67;15.50;;;;;;;;;;5085658;28;20029;-74
2021/09/06 02:17:50;;;;;;;30.85;15.20;;;;;;;;;;5085657;28;20374;-66
2021/09/06 02:20:16;;;;;;;29.08;15.45;;;;;;;;;;5086072;28;20024;-64
2021/09/06 02:22:42;;;;;;;35.53;16.08;;;;;;;;;;5086189;28;20147;-65
2021/09/06 02:25:09;;;;;;;32.80;15.85;;;;;;;;;;5086381;28;20021;-65
2021/09/06 02:27:36;;;;;;;27.90;14.98;;;;;;;;;;5086067;28;20083;-65
2021/09/06 02:30:03;;;;;;;31.15;16.63;;;;;;;;;;5086358;28;20043;-67
2021/09/06 02:32:29;;;;;;;28.08;15.38;;;;;;;;;;5086358;28;20054;-67
2021/09/06 02:34:55;;;;;;;29.50;15.98;;;;;;;;;;5086310;28;20028;-66
2021/09/06 02:37:21;;;;;;;30.40;15.35;;;;;;;;;;5086020;28;20540;-67
2021/09/06 02:39:47;;;;;;;28.02;15.48;;;;;;;;;;5085933;28;20024;-70
2021/09/06 02:42:13;;;;;;;26.08;15.65;;;;;;;;;;5085964;28;20082;-65
2021/09/06 02:44:39;;;;;;;32.80;16.45;;;;;;;;;;5086343;28;20089;-69
2021/09/06 02:47:05;;;;;;;30.08;15.98;;;;;;;;;;5085985;28;20036;-66
2021/09/06 02:49:31;;;;;;;32.47;17.02;;;;;;;;;;5085835;28;20033;-68
2021/09/06 02:51:57;;;;;;;34.28;16.15;;;;;;;;;;5085900;28;20024;-65
2021/09/06 02:54:23;;;;;;;31.85;17.00;;;;;;;;;;5085835;28;20084;-65
2021/09/06 02:56:49;;;;;;;32.10;17.13;;;;;;;;;;5085712;28;20025;-66
2021/09/06 02:59:16;;;;;;;34.38;16.10;;;;;;;;;;5085953;28;20495;-70
2021/09/06 03:01:42;;;;;;;29.40;16.63;;;;;;;;;;5085784;28;20024;-68
2021/09/06 03:04:08;;;;;;;27.95;15.98;;;;;;;;;;5085646;28;20063;-65
2021/09/06 03:06:34;;;;;;;33.95;18.27;;;;;;;;;;5085702;28;20024;-67
2021/09/06 03:09:00;;;;;;;28.83;17.48;;;;;;;;;;5085893;28;20024;-65
2021/09/06 03:11:26;;;;;;;31.02;17.08;;;;;;;;;;5085782;28;20379;-65
2021/09/06 03:13:52;;;;;;;26.88;15.23;;;;;;;;;;5085770;28;20020;-68
2021/09/06 03:16:18;;;;;;;30.00;15.90;;;;;;;;;;5085934;28;20071;-65
2021/09/06 03:18:44;;;;;;;28.35;16.40;;;;;;;;;;5085740;28;20533;-65
2021/09/06 03:21:10;;;;;;;34.17;17.48;;;;;;;;;;5085685;28;20017;-65
2021/09/06 03:23:36;;;;;;;29.17;16.83;;;;;;;;;;5085780;28;20021;-65
2021/09/06 03:26:02;;;;;;;37.13;17.10;;;;;;;;;;5085812;28;20025;-69
2021/09/06 03:28:28;;;;;;;30.02;16.38;;;;;;;;;;5085730;28;20085;-65
2021/09/06 03:30:54;;;;;;;32.95;17.17;;;;;;;;;;5085505;28;20024;-65
2021/09/06 03:33:21;;;;;;;31.73;16.15;;;;;;;;;;5085544;28;20021;-65
2021/09/06 03:35:47;;;;;;;29.63;15.15;;;;;;;;;;5085500;28;20032;-67
2021/09/06 03:38:13;;;;;;;32.70;15.23;;;;;;;;;;5085730;28;20046;-67
2021/09/06 03:40:40;;;;;;;29.10;16.55;;;;;;;;;;5085375;28;20378;-69
2021/09/06 03:43:06;;;;;;;30.98;16.05;;;;;;;;;;5085633;28;20021;-65
2021/09/06 03:45:32;;;;;;;38.08;18.45;;;;;;;;;;5085392;28;20063;-66
2021/09/06 03:47:58;;;;;;;27.05;15.75;;;;;;;;;;5085431;28;20078;-67
2021/09/06 03:50:24;;;;;;;33.35;17.27;;;;;;;;;;5085842;28;20024;-65
2021/09/06 03:52:50;;;;;;;32.78;18.48;;;;;;;;;;5085218;28;20055;-66
2021/09/06 03:55:16;;;;;;;31.52;16.13;;;;;;;;;;5085390;28;20028;-68
2021/09/06 03:58:05;;;;;;;35.60;17.15;;;;;;;;;;5085566;28;20024;-66
2021/09/06 04:00:31;;;;;;;36.15;17.15;;;;;;;;;;5068415;28;20021;-67
2021/09/06 04:02:57;;;;;;;30.05;16.88;;;;;;;;;;5085333;28;20028;-69
2021/09/06 04:05:23;;;;;;;31.63;16.70;;;;;;;;;;5086699;28;20146;-66
2021/09/06 04:07:49;;;;;;;35.15;16.40;;;;;;;;;;5089189;28;20024;-69
2021/09/06 04:10:16;;;;;;;32.17;16.50;;;;;;;;;;5071203;28;20050;-65
2021/09/06 04:12:42;;;;;;;34.17;18.65;;;;;;;;;;5088921;28;20086;-65
2021/09/06 04:15:09;;;;;;;31.75;16.63;;;;;;;;;;5088853;28;20024;-65
2021/09/06 04:17:36;;;;;;;33.20;17.92;;;;;;;;;;5089248;28;20036;-66
2021/09/06 04:20:02;;;;;;;33.22;15.55;;;;;;;;;;5088793;28;20052;-68
2021/09/06 04:22:28;;;;;;;38.13;18.83;;;;;;;;;;5088955;28;20024;-68
2021/09/06 04:24:55;;;;;;;33.35;17.90;;;;;;;;;;5088907;28;20051;-66
2021/09/06 04:27:21;;;;;;;32.17;16.85;;;;;;;;;;5088859;28;20021;-67
2021/09/06 04:29:47;;;;;;;32.08;16.50;;;;;;;;;;5088766;28;20091;-65
2021/09/06 04:32:13;;;;;;;32.17;17.55;;;;;;;;;;5088539;28;20033;-65
2021/09/06 04:34:39;;;;;;;30.58;16.05;;;;;;;;;;5088739;28;20032;-68
2021/09/06 04:37:06;;;;;;;32.03;17.65;;;;;;;;;;5088738;28;20025;-69
2021/09/06 04:39:32;;;;;;;32.42;16.70;;;;;;;;;;5088552;28;20040;-66
2021/09/06 04:41:58;;;;;;;32.13;18.10;;;;;;;;;;5088459;28;20433;-65
2021/09/06 04:44:24;;;;;;;36.22;17.20;;;;;;;;;;5088717;28;20035;-69
2021/09/06 04:46:50;;;;;;;31.02;17.50;;;;;;;;;;5070779;28;20096;-68
2021/09/06 04:49:16;;;;;;;27.30;16.52;;;;;;;;;;5088922;28;20056;-72
2021/09/06 04:51:42;;;;;;;34.65;17.40;;;;;;;;;;5088524;28;20029;-66
2021/09/06 04:54:08;;;;;;;29.80;17.15;;;;;;;;;;5088200;28;20482;-68
2021/09/06 04:56:34;;;;;;;38.67;17.88;;;;;;;;;;5088641;28;20071;-68
2021/09/06 04:59:00;;;;;;;33.90;17.17;;;;;;;;;;5088780;28;20035;-66
2021/09/06 05:01:27;;;;;;;33.33;18.35;;;;;;;;;;5088536;28;20024;-65
2021/09/06 05:03:53;;;;;;;33.72;17.40;;;;;;;;;;5088711;28;20020;-65
2021/09/06 05:06:19;;;;;;;29.63;17.63;;;;;;;;;;5070496;28;20028;-65
2021/09/06 05:08:45;;;;;;;36.30;20.23;;;;;;;;;;5088502;28;20096;-65
2021/09/06 05:11:11;;;;;;;34.15;18.08;;;;;;;;;;5088487;28;20021;-65
2021/09/06 05:13:37;;;;;;;27.98;16.13;;;;;;;;;;5088324;28;20032;-68
2021/09/06 05:16:03;;;;;;;30.60;16.67;;;;;;;;;;5087711;28;20029;-65
2021/09/06 05:18:29;;;;;;;33.03;17.73;;;;;;;;;;5087675;28;20029;-65
2021/09/06 05:20:56;;;;;;;33.25;17.50;;;;;;;;;;5088336;28;20028;-68
2021/09/06 05:23:22;;;;;;;34.88;17.80;;;;;;;;;;5088350;28;20025;-65
2021/09/06 05:25:48;;;;;;;27.85;15.70;;;;;;;;;;5088011;28;20025;-68
2021/09/06 05:28:14;;;;;;;35.05;18.52;;;;;;;;;;5088163;28;20071;-65
2021/09/06 05:30:43;;;;;;;33.42;16.98;;;;;;;;;;5087925;28;20070;-65
2021/09/06 05:33:09;;;;;;;29.23;16.92;;;;;;;;;;5087703;28;20025;-65
2021/09/06 05:35:36;;;;;;;34.05;16.85;;;;;;;;;;5087688;28;20049;-70
2021/09/06 05:38:02;;;;;;;32.42;16.58;;;;;;;;;;5087422;28;20080;-66
2021/09/06 05:40:28;;;;;;;35.42;18.42;;;;;;;;;;5087578;28;20035;-65
2021/09/06 05:42:54;;;;;;;32.67;16.23;;;;;;;;;;5087262;28;20039;-67
2021/09/06 05:45:20;;;;;;;37.90;17.85;;;;;;;;;;5087463;28;20028;-65
2021/09/06 05:47:46;;;;;;;28.60;16.30;;;;;;;;;;5069615;28;20033;-65
2021/09/06 05:50:17;;;;;;;35.63;18.08;;;;;;;;;;5087358;28;20063;-64
2021/09/06 05:52:43;;;;;;;33.63;17.30;;;;;;;;;;5087561;28;20031;-65
2021/09/06 05:55:09;;;;;;;32.35;17.38;;;;;;;;;;5087254;28;20031;-65
2021/09/06 05:57:35;;;;;;;31.77;17.25;;;;;;;;;;5087256;28;20032;-66
2021/09/06 06:00:02;;;;;;;32.58;16.67;;;;;;;;;;5088109;28;20055;-64
2021/09/06 06:02:31;;;;;;;32.10;16.95;;;;;;;;;;5087161;28;20024;-65
2021/09/06 06:04:57;;;;;;;35.03;18.92;;;;;;;;;;5087259;28;20031;-64
2021/09/06 06:07:23;;;;;;;31.27;17.20;;;;;;;;;;5069235;28;20192;-69
2021/09/06 06:09:52;;;;;;;34.40;18.50;;;;;;;;;;5087068;28;20024;-63
2021/09/06 06:12:18;;;;;;;34.22;17.08;;;;;;;;;;5087004;28;20063;-69
2021/09/06 06:14:44;;;;;;;32.55;17.48;;;;;;;;;;5087272;28;20028;-65
2021/09/06 06:17:10;;;;;;;31.88;16.67;;;;;;;;;;5086840;28;20044;-65
2021/09/06 06:19:36;;;;;;;32.90;17.73;;;;;;;;;;5086607;28;20036;-66
2021/09/06 06:22:02;;;;;;;29.98;16.15;;;;;;;;;;5086597;28;20036;-69
2021/09/06 06:24:29;;;;;;;30.67;16.65;;;;;;;;;;5086311;28;20036;-65
2021/09/06 06:26:55;;;;;;;31.55;16.52;;;;;;;;;;5086669;28;20359;-65
2021/09/06 06:29:21;;;;;;;27.83;15.95;;;;;;;;;;5086548;28;20035;-65
2021/09/06 06:31:47;;;;;;;29.60;16.52;;;;;;;;;;5068468;28;20376;-64
2021/09/06 06:34:13;;;;;;;31.55;17.65;;;;;;;;;;5086046;28;20024;-64
2021/09/06 06:36:39;;;;;;;32.28;16.13;;;;;;;;;;5067586;28;20020;-65
2021/09/06 06:39:05;;;;;;;29.85;16.55;;;;;;;;;;5085573;28;20020;-69
2021/09/06 06:41:32;;;;;;;27.67;15.35;;;;;;;;;;5086090;28;20020;-65
2021/09/06 06:43:58;;;;;;;30.92;16.70;;;;;;;;;;5085990;28;20016;-65
2021/09/06 06:46:24;;;;;;;27.30;16.50;;;;;;;;;;5086307;28;20080;-70
2021/09/06 06:48:50;;;;;;;28.63;15.50;;;;;;;;;;5085960;28;20070;-67
2021/09/06 06:51:16;;;;;;;31.27;15.02;;;;;;;;;;5086104;28;20052;-65
2021/09/06 06:53:43;;;;;;;33.30;16.35;;;;;;;;;;5068043;28;20036;-65
2021/09/06 06:56:11;;;;;;;29.63;15.80;;;;;;;;;;5086768;28;20103;-66
2021/09/06 06:58:37;;;;;;;31.88;15.30;;;;;;;;;;5086603;28;20020;-65
2021/09/06 07:01:03;;;;;;;26.65;13.82;;;;;;;;;;5085814;28;20024;-64
2021/09/06 07:03:29;;;;;;;29.30;15.88;;;;;;;;;;5067581;28;20060;-65
2021/09/06 07:05:55;;;;;;;26.33;14.02;;;;;;;;;;5085608;28;20035;-70
2021/09/06 07:08:22;;;;;;;25.95;13.73;;;;;;;;;;5086039;28;20426;-65
2021/09/06 07:10:48;;;;;;;26.27;13.88;;;;;;;;;;5086655;28;20028;-64
2021/09/06 07:13:14;;;;;;;25.60;13.90;;;;;;;;;;5086089;28;20040;-67
2021/09/06 07:15:41;;;;;;;27.40;14.82;;;;;;;;;;5086092;28;20182;-64
2021/09/06 07:18:08;;;;;;;26.95;14.70;;;;;;;;;;5085975;28;20031;-64
2021/09/06 07:20:34;;;;;;;28.17;14.70;;;;;;;;;;5086452;28;20021;-64
2021/09/06 07:23:00;;;;;;;27.77;14.25;;;;;;;;;;5086369;28;20033;-65
2021/09/06 07:25:27;;;;;;;28.17;14.10;;;;;;;;;;5086396;28;20486;-64
2021/09/06 07:27:53;;;;;;;26.83;14.38;;;;;;;;;;5085735;28;20093;-64
2021/09/06 07:30:19;;;;;;;24.50;13.68;;;;;;;;;;5085187;28;20029;-65
2021/09/06 07:32:45;;;;;;;30.55;15.85;;;;;;;;;;5085587;28;20025;-63
2021/09/06 07:35:15;;;;;;;24.88;13.13;;;;;;;;;;5085267;28;20624;-64
2021/09/06 07:37:41;;;;;;;24.30;14.25;;;;;;;;;;5085620;28;20112;-65
2021/09/06 07:40:10;;;;;;;29.95;14.88;;;;;;;;;;5086076;28;20017;-67
2021/09/06 07:42:36;;;;;;;25.25;14.93;;;;;;;;;;5089386;28;20406;-72
2021/09/06 07:45:03;;;;;;;29.85;14.13;;;;;;;;;;5088946;28;20028;-63
2021/09/06 07:47:29;;;;;;;24.30;13.93;;;;;;;;;;5089291;28;20039;-65
2021/09/06 07:49:57;;;;;;;22.30;12.88;;;;;;;;;;5089656;28;20050;-67
2021/09/06 07:52:23;;;;;;;24.33;15.13;;;;;;;;;;5089840;28;20020;-67
2021/09/06 07:54:49;;;;;;;21.30;13.20;;;;;;;;;;5088074;28;20028;-64
2021/09/06 07:57:15;;;;;;;24.27;13.38;;;;;;;;;;5089099;28;20035;-65
2021/09/06 07:59:41;;;;;;;23.77;12.80;;;;;;;;;;5089701;28;20095;-64
2021/09/06 08:02:07;;;;;;;25.05;13.75;;;;;;;;;;5071219;28;20020;-67
2021/09/06 08:04:33;;;;;;;23.38;12.55;;;;;;;;;;5089223;28;20025;-64
2021/09/06 08:07:00;;;;;;;25.70;13.13;;;;;;;;;;5089347;28;20028;-65
2021/09/06 08:09:26;;;;;;;25.23;14.27;;;;;;;;;;5088915;28;20028;-67
2021/09/06 08:11:55;;;;;;;23.40;12.90;;;;;;;;;;5087813;28;20032;-68
2021/09/06 08:14:22;;;;;;;21.17;12.23;;;;;;;;;;5095976;28;20035;-64
2021/09/06 08:16:48;;;;;;;19.42;11.05;;;;;;;;;;5088145;28;20039;-68
2021/09/06 08:19:14;;;;;;;24.42;12.60;;;;;;;;;;5068386;28;20083;-67
2021/09/06 08:21:40;;;;;;;21.83;11.60;;;;;;;;;;5068854;28;20059;-70
2021/09/06 08:24:06;;;;;;;22.67;12.70;;;;;;;;;;5069358;28;20028;-64
2021/09/06 08:26:33;;;;;;;20.48;11.25;;;;;;;;;;5069712;28;20031;-64
2021/09/06 08:28:59;;;;;;;22.67;12.70;;;;;;;;;;5069745;28;20048;-64
2021/09/06 08:31:26;;;;;;;20.45;10.95;;;;;;;;;;5051148;28;20025;-66
2021/09/06 08:33:52;;;;;;;21.92;11.30;;;;;;;;;;5067601;28;20103;-64
2021/09/06 08:36:19;;;;;;;21.67;12.02;;;;;;;;;;5086543;28;20370;-64
2021/09/06 08:38:45;;;;;;;21.85;12.80;;;;;;;;;;5088379;28;20036;-67
2021/09/06 08:41:11;;;;;;;20.20;11.63;;;;;;;;;;5088587;28;20048;-65
2021/09/06 08:43:37;;;;;;;23.55;12.55;;;;;;;;;;5088574;28;20024;-64
2021/09/06 08:46:04;;;;;;;22.95;12.40;;;;;;;;;;5087974;28;20510;-71
2021/09/06 08:48:30;;;;;;;23.50;14.18;;;;;;;;;;5087642;28;20024;-64
2021/09/06 08:50:56;;;;;;;22.80;12.82;;;;;;;;;;5088345;28;20025;-65
2021/09/06 08:53:22;;;;;;;34.28;15.00;;;;;;;;;;5089152;28;20029;-65
2021/09/06 08:55:49;;;;;;;21.83;12.60;;;;;;;;;;5089140;28;20063;-64
2021/09/06 08:58:18;;;;;;;21.10;11.88;;;;;;;;;;5088896;28;20029;-64
2021/09/06 09:00:48;;;;;;;20.17;11.70;;;;;;;;;;5088871;28;20024;-64
2021/09/06 09:03:14;;;;;;;19.23;12.02;;;;;;;;;;5088549;28;20016;-64
2021/09/06 09:05:55;;;;;;;21.83;12.63;;;;;;;;;;5088390;28;20059;-64
2021/09/06 09:08:24;;;;;;;22.00;13.50;;;;;;;;;;5088577;28;20047;-64
2021/09/06 09:10:50;;;;;;;20.17;10.75;;;;;;;;;;5088763;28;20044;-63
2021/09/06 09:13:17;;;;;;;19.95;11.90;;;;;;;;;;5088893;28;20131;-67
2021/09/06 09:15:51;;;;;;;20.40;11.65;;;;;;;;;;5088721;28;20063;-64
2021/09/06 09:18:30;;;;;;;20.25;11.43;;;;;;;;;;5088641;28;20116;-64
2021/09/06 09:20:58;;;;;;;17.20;11.18;;;;;;;;;;5088639;28;20058;-64
2021/09/06 09:23:34;;;;;;;22.08;11.20;;;;;;;;;;5088478;28;20025;-64
2021/09/06 09:26:01;;;;;;;20.90;12.02;;;;;;;;;;5088390;28;20080;-64
2021/09/06 09:28:27;;;;;;;20.13;12.45;;;;;;;;;;5088587;28;20024;-64
2021/09/06 09:31:03;;;;;;;19.40;11.98;;;;;;;;;;5088385;28;20024;-65
2021/09/06 09:33:30;;;;;;;18.75;12.07;;;;;;;;;;5087867;28;20028;-65
2021/09/06 09:35:58;;;;;;;20.60;11.63;;;;;;;;;;5087344;28;20091;-66
2021/09/06 09:38:33;;;;;;;21.85;12.43;;;;;;;;;;5087319;28;20051;-65
2021/09/06 09:40:59;;;;;;;20.08;11.13;;;;;;;;;;5069501;28;20017;-65
2021/09/06 09:43:32;;;;;;;21.23;11.85;;;;;;;;;;5087503;28;20035;-65
2021/09/06 09:46:02;;;;;;;20.60;12.23;;;;;;;;;;5087823;28;20028;-65
2021/09/06 09:48:28;;;;;;;17.00;10.80;;;;;;;;;;5088199;28;20028;-65
2021/09/06 09:50:54;;;;;;;17.85;10.40;;;;;;;;;;5069823;28;20092;-65
2021/09/06 09:53:21;;;;;;;16.23;10.02;;;;;;;;;;5087644;28;20052;-66
2021/09/06 09:55:47;;;;;;;17.88;10.35;;;;;;;;;;5087565;28;20031;-68
2021/09/06 09:58:16;;;;;;;20.40;10.63;;;;;;;;;;5069852;28;20047;-64
2021/09/06 10:00:42;;;;;;;20.80;11.85;;;;;;;;;;5087705;28;20081;-65
2021/09/06 10:03:09;;;;;;;15.48;10.50;;;;;;;;;;5087344;28;20050;-66
2021/09/06 10:05:36;;;;;;;17.48;11.90;;;;;;;;;;5087490;28;20035;-67
2021/09/06 10:08:07;;;;;;;20.92;12.50;;;;;;;;;;5087552;28;20032;-64
2021/09/06 10:10:37;;;;;;;18.35;11.70;;;;;;;;;;5087389;28;20058;-64
2021/09/06 10:13:06;;;;;;;20.48;11.27;;;;;;;;;;5087650;28;20367;-65
2021/09/06 10:15:35;;;;;;;17.05;10.55;;;;;;;;;;5087412;28;20036;-64
2021/09/06 10:18:23;;;;;;;21.90;12.13;;;;;;;;;;5070078;28;20032;-70
2021/09/06 10:20:51;;;;;;;16.15;11.55;;;;;;;;;;5087403;28;20070;-64
2021/09/06 10:23:17;;;;;;;19.23;11.45;;;;;;;;;;5070062;28;20029;-64
2021/09/06 10:25:44;;;;;;;15.07;10.00;;;;;;;;;;5087497;28;20040;-66
2021/09/06 10:28:15;;;;;;;15.32;8.90;;;;;;;;;;5087472;28;20028;-65
2021/09/06 10:30:41;;;;;;;21.13;10.43;;;;;;;;;;5087204;28;20083;-65
2021/09/06 10:33:08;;;;;;;15.40;10.18;;;;;;;;;;5086888;28;20048;-63
2021/09/06 10:35:34;;;;;;;16.85;9.77;;;;;;;;;;5087085;28;20036;-64
2021/09/06 10:38:03;;;;;;;16.77;9.23;;;;;;;;;;5086940;28;20027;-64
2021/09/06 10:40:31;;;;;;;15.38;9.77;;;;;;;;;;5086691;28;20017;-64
2021/09/06 10:42:57;;;;;;;16.60;10.30;;;;;;;;;;5086912;28;20379;-65
2021/09/06 10:45:24;;;;;;;18.55;10.00;;;;;;;;;;5086379;28;20028;-64
2021/09/06 10:47:57;;;;;;;15.98;9.90;;;;;;;;;;5086245;28;20029;-64
2021/09/06 10:50:23;;;;;;;14.85;9.82;;;;;;;;;;5086152;28;20020;-63
2021/09/06 10:52:50;;;;;;;15.85;9.77;;;;;;;;;;5086919;28;20107;-64
2021/09/06 10:55:17;;;;;;;18.35;10.18;;;;;;;;;;5086722;28;20036;-65
2021/09/06 10:57:44;;;;;;;17.17;9.60;;;;;;;;;;5086826;28;20020;-64
2021/09/06 11:00:16;;;;;;;14.85;9.50;;;;;;;;;;5086652;28;20013;-64
2021/09/06 11:02:42;;;;;;;16.45;9.43;;;;;;;;;;5085030;28;20088;-68
2021/09/06 11:05:09;;;;;;;16.15;9.50;;;;;;;;;;5085385;28;20039;-66
2021/09/06 11:07:35;;;;;;;14.88;9.02;;;;;;;;;;5085772;28;20043;-65
2021/09/06 11:10:09;;;;;;;14.65;8.60;;;;;;;;;;5086526;28;20028;-64
2021/09/06 11:12:35;;;;;;;14.15;9.50;;;;;;;;;;5086469;28;20040;-65
2021/09/06 11:15:01;;;;;;;14.95;9.75;;;;;;;;;;5085317;28;20021;-65
2021/09/06 11:17:28;;;;;;;14.80;10.55;;;;;;;;;;5086603;28;20020;-65
2021/09/06 11:19:56;;;;;;;14.50;9.65;;;;;;;;;;5086178;28;20045;-65
2021/09/06 11:22:22;;;;;;;11.80;8.50;;;;;;;;;;5085985;28;20052;-64
2021/09/06 11:24:49;;;;;;;14.95;9.35;;;;;;;;;;5085912;28;20082;-65
2021/09/06 11:27:24;;;;;;;13.63;8.32;;;;;;;;;;5085910;28;20028;-65
2021/09/06 11:29:50;;;;;;;17.90;11.35;;;;;;;;;;5085962;28;20109;-67
2021/09/06 11:32:16;;;;;;;15.80;10.25;;;;;;;;;;5086402;28;20108;-64
2021/09/06 11:34:42;;;;;;;15.05;10.07;;;;;;;;;;5086444;28;20079;-64
2021/09/06 11:37:08;;;;;;;14.57;10.02;;;;;;;;;;5086213;28;20108;-65
2021/09/06 11:39:36;;;;;;;17.05;11.23;;;;;;;;;;5086195;28;20047;-64
2021/09/06 11:42:02;;;;;;;16.35;9.52;;;;;;;;;;5068408;28;20108;-64
2021/09/06 11:44:29;;;;;;;20.08;11.30;;;;;;;;;;5086332;28;20051;-64
2021/09/06 11:46:55;;;;;;;15.73;9.00;;;;;;;;;;5086298;28;20025;-63
2021/09/06 11:49:22;;;;;;;14.73;9.05;;;;;;;;;;5086240;28;20017;-64
2021/09/06 11:51:48;;;;;;;15.77;9.88;;;;;;;;;;5086424;28;20460;-64
2021/09/06 11:54:14;;;;;;;15.65;9.55;;;;;;;;;;5086297;28;20060;-64
2021/09/06 11:56:40;;;;;;;14.30;9.43;;;;;;;;;;5087320;28;20023;-64
2021/09/06 11:59:06;;;;;;;16.48;9.50;;;;;;;;;;5068671;28;20031;-64
2021/09/06 12:01:36;;;;;;;11.98;8.65;;;;;;;;;;5087155;28;20044;-65
2021/09/06 12:04:10;;;;;;;11.75;8.70;;;;;;;;;;5086330;28;20070;-64
2021/09/06 12:06:37;;;;;;;13.98;9.50;;;;;;;;;;5085869;28;20032;-65
2021/09/06 12:09:04;;;;;;;13.82;8.98;;;;;;;;;;5085835;28;20080;-64
2021/09/06 12:11:35;;;;;;;14.85;9.60;;;;;;;;;;5086010;28;20033;-64
2021/09/06 12:14:01;;;;;;;17.27;8.93;;;;;;;;;;5085778;28;20471;-65
2021/09/06 12:16:30;;;;;;;14.05;8.93;;;;;;;;;;5085658;28;20029;-64
2021/09/06 12:18:57;;;;;;;11.90;8.57;;;;;;;;;;5085086;28;20059;-64
2021/09/06 12:21:24;;;;;;;15.55;8.70;;;;;;;;;;5085469;28;20506;-66
2021/09/06 12:23:57;;;;;;;12.65;8.00;;;;;;;;;;5083844;28;20086;-71
2021/09/06 12:26:23;;;;;;;11.90;9.30;;;;;;;;;;5082700;28;20063;-78
2021/09/06 12:28:49;;;;;;;11.80;8.82;;;;;;;;;;5082775;28;20035;-66
2021/09/06 12:31:16;;;;;;;13.35;8.32;;;;;;;;;;5081415;28;20083;-81
2021/09/06 12:33:42;;;;;;;14.25;8.50;;;;;;;;;;5078823;28;20299;-81
2021/09/06 12:36:08;;;;;;;14.00;9.13;;;;;;;;;;5077694;28;20033;-78
2021/09/06 12:38:35;;;;;;;11.98;7.93;;;;;;;;;;5079540;28;20078;-80
2021/09/06 12:41:01;;;;;;;12.85;8.73;;;;;;;;;;5078027;28;20024;-79
2021/09/06 12:43:27;;;;;;;12.35;8.80;;;;;;;;;;5078505;28;20451;-74
2021/09/06 12:45:54;;;;;;;12.48;8.50;;;;;;;;;;5060065;28;20024;-79
2021/09/06 12:48:20;;;;;;;11.13;8.45;;;;;;;;;;5078148;28;20069;-79
2021/09/06 12:50:46;;;;;;;9.95;7.20;;;;;;;;;;5065301;28;20162;-78
2021/09/06 12:53:12;;;;;;;13.00;8.45;;;;;;;;;;5077780;28;20039;-79
2021/09/06 12:55:38;;;;;;;15.93;8.45;;;;;;;;;;5075820;28;20024;-78
2021/09/06 12:58:05;;;;;;;10.48;8.07;;;;;;;;;;5076153;28;20020;-79
2021/09/06 13:00:31;;;;;;;13.45;8.00;;;;;;;;;;5075798;28;20025;-77
2021/09/06 13:02:58;;;;;;;15.50;8.90;;;;;;;;;;5074072;28;20106;-80
2021/09/06 13:05:24;;;;;;;12.35;8.88;;;;;;;;;;5075854;28;20034;-79
2021/09/06 13:07:51;;;;;;;12.75;8.98;;;;;;;;;;5072616;28;20482;-80
2021/09/06 13:10:17;;;;;;;11.30;8.15;;;;;;;;;;5073355;28;20051;-79
2021/09/06 13:12:44;;;;;;;11.38;7.85;;;;;;;;;;5073513;28;20016;-77
2021/09/06 13:15:10;;;;;;;12.00;8.07;;;;;;;;;;5072723;28;20453;-79
2021/09/06 13:17:37;;;;;;;8.82;6.70;;;;;;;;;;5072784;28;20028;-81
2021/09/06 13:20:03;;;;;;;11.15;8.20;;;;;;;;;;5073736;28;20044;-78
2021/09/06 13:22:30;;;;;;;10.15;7.53;;;;;;;;;;5074953;28;20055;-71
2021/09/06 13:24:56;;;;;;;12.30;7.55;;;;;;;;;;5076591;28;20390;-80
2021/09/06 13:27:22;;;;;;;9.63;7.85;;;;;;;;;;5077230;28;20055;-80
2021/09/06 13:29:48;;;;;;;9.18;7.65;;;;;;;;;;5077872;28;20032;-74
2021/09/06 13:32:14;;;;;;;10.65;7.18;;;;;;;;;;5077727;28;20028;-78
2021/09/06 13:34:40;;;;;;;10.25;8.05;;;;;;;;;;5076308;28;20487;-78
2021/09/06 13:37:07;;;;;;;8.30;7.03;;;;;;;;;;5075986;28;20032;-78
2021/09/06 13:39:33;;;;;;;7.85;6.75;;;;;;;;;;5075769;28;20058;-80
2021/09/06 13:42:00;;;;;;;9.57;7.53;;;;;;;;;;5075526;28;20028;-80
2021/09/06 13:44:26;;;;;;;9.07;7.30;;;;;;;;;;5074418;28;20029;-76
2021/09/06 13:46:52;;;;;;;11.02;8.00;;;;;;;;;;5074586;28;20039;-78
2021/09/06 13:49:19;;;;;;;9.82;7.55;;;;;;;;;;5074984;28;20025;-77
2021/09/06 13:51:45;;;;;;;13.38;8.10;;;;;;;;;;5075198;28;20029;-73
2021/09/06 13:54:12;;;;;;;9.38;7.40;;;;;;;;;;5075928;28;20033;-79
2021/09/06 13:56:38;;;;;;;10.85;7.07;;;;;;;;;;5073638;28;20077;-78
2021/09/06 13:59:05;;;;;;;9.25;7.90;;;;;;;;;;5075234;28;20044;-76
2021/09/06 14:01:31;;;;;;;9.25;6.25;;;;;;;;;;5076006;28;20020;-76
2021/09/06 14:03:57;;;;;;;9.10;6.80;;;;;;;;;;5077196;28;20410;-79
2021/09/06 14:06:23;;;;;;;9.38;7.20;;;;;;;;;;5078161;28;20016;-68
2021/09/06 14:08:50;;;;;;;10.45;7.40;;;;;;;;;;5078258;28;20033;-76
2021/09/06 14:11:16;;;;;;;12.75;7.57;;;;;;;;;;5078255;28;20032;-78
2021/09/06 14:13:42;;;;;;;9.57;7.32;;;;;;;;;;5077705;28;20028;-71
2021/09/06 14:16:08;;;;;;;12.85;7.60;;;;;;;;;;5076838;28;20666;-80
2021/09/06 14:18:34;;;;;;;17.13;7.30;;;;;;;;;;5076067;28;20033;-78